sensor_id;sensor_type;location;lat;lon;timestamp;pressure;altitude;pressure_sealevel;temperature;humidity
71938;BME280;59810;48.800;9.086;2023-01-16T00:01:06;96487.88;;;2.30;74.07
71938;BME280;59810;48.800;9.086;2023-01-16T00:03:32;96473.06;;;2.34;73.95
71938;BME280;59810;48.800;9.086;2023-01-16T00:05:59;96473.78;;;2.41;73.44
71938;BME280;59810;48.800;9.086;2023-01-16T00:08:25;96472.53;;;2.55;72.86
71938;BME280;59810;48.800;9.086;2023-01-16T00:10:50;96462.84;;;2.61;72.46
71938;BME280;59810;48.800;9.086;2023-01-16T00:13:15;96464.47;;;2.62;72.62
71938;BME280;59810;48.800;9.086;2023-01-16T00:15:45;96456.34;;;2.68;72.32
71938;BME280;59810;48.800;9.086;2023-01-16T00:18:13;96452.66;;;2.69;72.28
71938;BME280;59810;48.800;9.086;2023-01-16T00:20:38;96446.84;;;2.72;72.47
71938;BME280;59810;48.800;9.086;2023-01-16T00:23:04;96450.56;;;2.71;71.67
71938;BME280;59810;48.800;9.086;2023-01-16T00:25:31;96437.47;;;2.70;71.57
71938;BME280;59810;48.800;9.086;2023-01-16T00:27:57;96443.03;;;2.68;71.91
71938;BME280;59810;48.800;9.086;2023-01-16T00:30:25;96433.78;;;2.71;72.23
71938;BME280;59810;48.800;9.086;2023-01-16T00:32:50;96424.72;;;2.72;71.65
71938;BME280;59810;48.800;9.086;2023-01-16T00:35:16;96424.50;;;2.73;71.77
71938;BME280;59810;48.800;9.086;2023-01-16T00:37:44;96418.72;;;2.76;71.07
71938;BME280;59810;48.800;9.086;2023-01-16T00:40:10;96413.38;;;2.76;71.46
71938;BME280;59810;48.800;9.086;2023-01-16T00:42:35;96411.19;;;2.73;71.14
71938;BME280;59810;48.800;9.086;2023-01-16T00:45:01;96404.22;;;2.72;71.79
71938;BME280;59810;48.800;9.086;2023-01-16T00:47:26;96402.03;;;2.69;71.49
71938;BME280;59810;48.800;9.086;2023-01-16T00:49:51;96397.25;;;2.60;72.34
71938;BME280;59810;48.800;9.086;2023-01-16T00:52:17;96394.22;;;2.56;72.88
71938;BME280;59810;48.800;9.086;2023-01-16T00:54:42;96387.38;;;2.48;72.54
71938;BME280;59810;48.800;9.086;2023-01-16T00:57:11;96388.31;;;2.42;73.28
71938;BME280;59810;48.800;9.086;2023-01-16T00:59:36;96380.19;;;2.37;73.10
71938;BME280;59810;48.800;9.086;2023-01-16T01:02:02;96381.69;;;2.33;73.36
71938;BME280;59810;48.800;9.086;2023-01-16T01:04:28;96374.16;;;2.30;73.17
71938;BME280;59810;48.800;9.086;2023-01-16T01:06:53;96372.56;;;2.29;73.46
71938;BME280;59810;48.800;9.086;2023-01-16T01:09:18;96366.03;;;2.25;73.78
71938;BME280;59810;48.800;9.086;2023-01-16T01:11:44;96362.56;;;2.25;74.08
71938;BME280;59810;48.800;9.086;2023-01-16T01:14:09;96350.06;;;2.25;73.54
71938;BME280;59810;48.800;9.086;2023-01-16T01:16:34;96344.59;;;2.20;73.55
71938;BME280;59810;48.800;9.086;2023-01-16T01:19:00;96348.09;;;2.21;73.65
71938;BME280;59810;48.800;9.086;2023-01-16T01:21:25;96338.59;;;2.25;73.67
71938;BME280;59810;48.800;9.086;2023-01-16T01:23:50;96338.59;;;2.25;73.20
71938;BME280;59810;48.800;9.086;2023-01-16T01:26:16;96327.13;;;2.24;73.50
71938;BME280;59810;48.800;9.086;2023-01-16T01:28:42;96343.34;;;2.23;73.39
71938;BME280;59810;48.800;9.086;2023-01-16T01:31:10;96331.06;;;2.22;73.96
71938;BME280;59810;48.800;9.086;2023-01-16T01:33:36;96330.94;;;2.16;73.89
71938;BME280;59810;48.800;9.086;2023-01-16T01:36:03;96317.06;;;2.14;74.89
71938;BME280;59810;48.800;9.086;2023-01-16T01:38:33;96316.69;;;2.11;74.14
71938;BME280;59810;48.800;9.086;2023-01-16T01:40:59;96311.03;;;2.07;74.50
71938;BME280;59810;48.800;9.086;2023-01-16T01:43:40;96305.69;;;2.07;74.23
71938;BME280;59810;48.800;9.086;2023-01-16T01:46:06;96305.25;;;2.10;73.85
71938;BME280;59810;48.800;9.086;2023-01-16T01:48:39;96306.16;;;2.04;74.16
71938;BME280;59810;48.800;9.086;2023-01-16T01:51:10;96299.22;;;2.03;73.97
71938;BME280;59810;48.800;9.086;2023-01-16T01:53:45;96294.94;;;2.02;74.15
71938;BME280;59810;48.800;9.086;2023-01-16T01:58:54;96275.59;;;1.95;74.59
71938;BME280;59810;48.800;9.086;2023-01-16T02:01:21;96281.94;;;1.94;74.90
71938;BME280;59810;48.800;9.086;2023-01-16T02:03:52;96262.31;;;1.95;75.25
71938;BME280;59810;48.800;9.086;2023-01-16T02:06:22;96262.72;;;1.92;75.64
71938;BME280;59810;48.800;9.086;2023-01-16T02:08:52;96254.97;;;1.91;74.97
71938;BME280;59810;48.800;9.086;2023-01-16T02:11:34;96247.34;;;1.94;74.69
71938;BME280;59810;48.800;9.086;2023-01-16T02:14:07;96228.06;;;1.99;74.00
71938;BME280;59810;48.800;9.086;2023-01-16T02:16:35;96224.34;;;2.00;74.38
71938;BME280;59810;48.800;9.086;2023-01-16T02:19:43;96198.88;;;2.04;74.29
71938;BME280;59810;48.800;9.086;2023-01-16T02:33:06;96174.91;;;2.15;73.85
71938;BME280;59810;48.800;9.086;2023-01-16T02:38:17;96165.88;;;2.16;73.50
71938;BME280;59810;48.800;9.086;2023-01-16T02:41:04;96166.22;;;2.20;73.79
71938;BME280;59810;48.800;9.086;2023-01-16T02:51:23;96121.19;;;2.18;73.41
71938;BME280;59810;48.800;9.086;2023-01-16T02:54:03;96119.94;;;2.21;73.08
71938;BME280;59810;48.800;9.086;2023-01-16T02:56:43;96105.91;;;2.26;73.06
71938;BME280;59810;48.800;9.086;2023-01-16T02:59:13;96103.00;;;2.27;72.87
71938;BME280;59810;48.800;9.086;2023-01-16T03:01:41;96087.88;;;2.28;73.25
71938;BME280;59810;48.800;9.086;2023-01-16T03:23:28;96031.09;;;2.39;72.27
71938;BME280;59810;48.800;9.086;2023-01-16T03:26:13;96024.97;;;2.38;72.71
71938;BME280;59810;48.800;9.086;2023-01-16T03:31:29;96023.00;;;2.34;72.70
71938;BME280;59810;48.800;9.086;2023-01-16T03:34:17;96021.41;;;2.33;72.79
71938;BME280;59810;48.800;9.086;2023-01-16T03:39:17;96004.03;;;2.30;73.34
71938;BME280;59810;48.800;9.086;2023-01-16T03:41:46;95999.16;;;2.27;73.14
71938;BME280;59810;48.800;9.086;2023-01-16T03:49:33;95974.41;;;2.27;72.64
71938;BME280;59810;48.800;9.086;2023-01-16T03:52:03;95969.53;;;2.24;73.04
71938;BME280;59810;48.800;9.086;2023-01-16T03:54:48;95955.66;;;2.22;73.59
71938;BME280;59810;48.800;9.086;2023-01-16T03:57:24;95951.44;;;2.09;74.07
71938;BME280;59810;48.800;9.086;2023-01-16T03:59:52;95940.72;;;2.04;74.04
71938;BME280;59810;48.800;9.086;2023-01-16T04:02:29;95939.81;;;1.98;73.56
71938;BME280;59810;48.800;9.086;2023-01-16T04:05:29;95931.84;;;1.98;73.69
71938;BME280;59810;48.800;9.086;2023-01-16T04:08:16;95911.81;;;1.96;73.52
71938;BME280;59810;48.800;9.086;2023-01-16T04:10:47;95901.38;;;1.94;74.30
71938;BME280;59810;48.800;9.086;2023-01-16T04:13:18;95898.41;;;1.91;74.77
71938;BME280;59810;48.800;9.086;2023-01-16T04:15:51;95887.44;;;1.87;74.69
71938;BME280;59810;48.800;9.086;2023-01-16T04:18:24;95880.25;;;1.87;74.31
71938;BME280;59810;48.800;9.086;2023-01-16T04:20:53;95868.09;;;1.92;74.18
71938;BME280;59810;48.800;9.086;2023-01-16T04:23:19;95869.81;;;1.98;73.67
71938;BME280;59810;48.800;9.086;2023-01-16T04:25:45;95858.13;;;1.99;73.16
71938;BME280;59810;48.800;9.086;2023-01-16T04:28:10;95853.59;;;1.99;73.90
71938;BME280;59810;48.800;9.086;2023-01-16T04:30:38;95844.00;;;1.98;73.51
71938;BME280;59810;48.800;9.086;2023-01-16T04:33:04;95831.41;;;1.94;74.14
71938;BME280;59810;48.800;9.086;2023-01-16T04:35:31;95824.81;;;1.96;73.62
71938;BME280;59810;48.800;9.086;2023-01-16T04:37:57;95819.50;;;1.96;73.34
71938;BME280;59810;48.800;9.086;2023-01-16T04:40:23;95816.03;;;1.96;73.59
71938;BME280;59810;48.800;9.086;2023-01-16T04:42:48;95795.44;;;1.91;73.76
71938;BME280;59810;48.800;9.086;2023-01-16T04:45:14;95798.66;;;1.93;73.18
71938;BME280;59810;48.800;9.086;2023-01-16T04:47:40;95782.25;;;1.96;73.24
71938;BME280;59810;48.800;9.086;2023-01-16T04:50:06;95771.72;;;1.90;73.93
71938;BME280;59810;48.800;9.086;2023-01-16T04:52:31;95769.78;;;1.85;74.13
71938;BME280;59810;48.800;9.086;2023-01-16T04:54:57;95755.13;;;1.82;74.55
71938;BME280;59810;48.800;9.086;2023-01-16T04:57:25;95746.00;;;1.78;74.16
71938;BME280;59810;48.800;9.086;2023-01-16T04:59:50;95734.56;;;1.78;74.78
71938;BME280;59810;48.800;9.086;2023-01-16T05:02:21;95730.63;;;1.80;73.63
71938;BME280;59810;48.800;9.086;2023-01-16T05:04:46;95720.47;;;1.77;73.84
71938;BME280;59810;48.800;9.086;2023-01-16T05:07:12;95718.28;;;1.74;74.21
71938;BME280;59810;48.800;9.086;2023-01-16T05:09:38;95715.38;;;1.76;74.20
71938;BME280;59810;48.800;9.086;2023-01-16T05:12:06;95700.47;;;1.75;74.58
71938;BME280;59810;48.800;9.086;2023-01-16T05:14:31;95696.69;;;1.71;74.89
71938;BME280;59810;48.800;9.086;2023-01-16T05:16:56;95696.69;;;1.71;74.19
71938;BME280;59810;48.800;9.086;2023-01-16T05:19:22;95680.47;;;1.72;74.16
71938;BME280;59810;48.800;9.086;2023-01-16T05:21:53;95672.00;;;1.75;74.00
71938;BME280;59810;48.800;9.086;2023-01-16T05:24:19;95671.78;;;1.77;74.10
71938;BME280;59810;48.800;9.086;2023-01-16T05:26:44;95662.75;;;1.78;74.41
71938;BME280;59810;48.800;9.086;2023-01-16T05:29:10;95665.97;;;1.80;74.53
71938;BME280;59810;48.800;9.086;2023-01-16T05:31:35;95659.03;;;1.79;74.07
71938;BME280;59810;48.800;9.086;2023-01-16T05:34:01;95644.38;;;1.76;74.21
71938;BME280;59810;48.800;9.086;2023-01-16T05:36:26;95638.06;;;1.82;72.99
71938;BME280;59810;48.800;9.086;2023-01-16T05:38:54;95637.81;;;1.84;73.15
71938;BME280;59810;48.800;9.086;2023-01-16T05:41:20;95627.97;;;1.84;73.15
71938;BME280;59810;48.800;9.086;2023-01-16T05:43:45;95619.19;;;1.84;74.35
71938;BME280;59810;48.800;9.086;2023-01-16T05:46:13;95611.16;;;1.79;74.89
71938;BME280;59810;48.800;9.086;2023-01-16T05:48:39;95597.28;;;1.77;74.76
71938;BME280;59810;48.800;9.086;2023-01-16T05:51:05;95588.25;;;1.78;74.06
71938;BME280;59810;48.800;9.086;2023-01-16T05:53:31;95575.44;;;1.75;74.70
71938;BME280;59810;48.800;9.086;2023-01-16T05:55:57;95571.41;;;1.72;75.08
71938;BME280;59810;48.800;9.086;2023-01-16T05:58:22;95565.78;;;1.69;75.73
71938;BME280;59810;48.800;9.086;2023-01-16T06:00:48;95554.59;;;1.67;74.83
71938;BME280;59810;48.800;9.086;2023-01-16T06:03:13;95545.81;;;1.66;74.81
71938;BME280;59810;48.800;9.086;2023-01-16T06:05:41;95545.63;;;1.73;73.63
71938;BME280;59810;48.800;9.086;2023-01-16T06:08:07;95534.81;;;1.79;73.18
71938;BME280;59810;48.800;9.086;2023-01-16T06:10:32;95528.50;;;1.85;72.98
71938;BME280;59810;48.800;9.086;2023-01-16T06:12:57;95522.56;;;2.00;71.94
71938;BME280;59810;48.800;9.086;2023-01-16T06:15:23;95509.56;;;2.04;71.73
71938;BME280;59810;48.800;9.086;2023-01-16T06:17:48;95494.25;;;2.16;71.35
71938;BME280;59810;48.800;9.086;2023-01-16T06:20:17;95494.56;;;2.19;71.44
71938;BME280;59810;48.800;9.086;2023-01-16T06:22:44;95490.09;;;2.25;70.48
71938;BME280;59810;48.800;9.086;2023-01-16T06:25:23;95465.84;;;2.22;71.14
71938;BME280;59810;48.800;9.086;2023-01-16T06:27:49;95464.28;;;2.26;70.01
71938;BME280;59810;48.800;9.086;2023-01-16T06:30:15;95460.34;;;2.28;69.78
71938;BME280;59810;48.800;9.086;2023-01-16T06:32:44;95456.97;;;2.38;69.55
71938;BME280;59810;48.800;9.086;2023-01-16T06:35:13;95456.41;;;2.36;69.28
71938;BME280;59810;48.800;9.086;2023-01-16T06:37:53;95442.56;;;2.34;70.10
71938;BME280;59810;48.800;9.086;2023-01-16T06:40:30;95440.47;;;2.41;70.00
71938;BME280;59810;48.800;9.086;2023-01-16T06:43:41;95441.53;;;2.40;69.54
71938;BME280;59810;48.800;9.086;2023-01-16T06:46:28;95423.75;;;2.45;69.31
71938;BME280;59810;48.800;9.086;2023-01-16T06:48:56;95421.13;;;2.50;68.20
71938;BME280;59810;48.800;9.086;2023-01-16T06:51:26;95418.75;;;2.54;68.36
71938;BME280;59810;48.800;9.086;2023-01-16T06:53:52;95410.25;;;2.57;68.50
71938;BME280;59810;48.800;9.086;2023-01-16T06:56:22;95420.34;;;2.55;68.91
71938;BME280;59810;48.800;9.086;2023-01-16T06:58:49;95397.44;;;2.54;68.62
71938;BME280;59810;48.800;9.086;2023-01-16T07:01:15;95400.09;;;2.54;68.12
71938;BME280;59810;48.800;9.086;2023-01-16T07:03:42;95394.50;;;2.50;69.00
71938;BME280;59810;48.800;9.086;2023-01-16T07:06:07;95392.09;;;2.49;68.83
71938;BME280;59810;48.800;9.086;2023-01-16T07:08:32;95384.84;;;2.44;69.33
71938;BME280;59810;48.800;9.086;2023-01-16T07:10:59;95380.34;;;2.45;69.56
71938;BME280;59810;48.800;9.086;2023-01-16T07:13:52;95375.53;;;2.42;70.70
71938;BME280;59810;48.800;9.086;2023-01-16T07:16:58;95369.88;;;2.33;70.95
71938;BME280;59810;48.800;9.086;2023-01-16T07:19:42;95364.72;;;2.27;71.32
71938;BME280;59810;48.800;9.086;2023-01-16T07:22:27;95372.16;;;2.25;69.41
71938;BME280;59810;48.800;9.086;2023-01-16T07:25:09;95363.13;;;2.26;70.40
71938;BME280;59810;48.800;9.086;2023-01-16T07:27:35;95351.94;;;2.24;70.66
71938;BME280;59810;48.800;9.086;2023-01-16T07:30:03;95344.19;;;2.22;71.20
71938;BME280;59810;48.800;9.086;2023-01-16T07:32:31;95342.25;;;2.12;72.56
71938;BME280;59810;48.800;9.086;2023-01-16T07:34:59;95343.31;;;2.11;73.13
71938;BME280;59810;48.800;9.086;2023-01-16T07:37:24;95330.22;;;2.05;73.13
71938;BME280;59810;48.800;9.086;2023-01-16T07:39:49;95330.47;;;2.03;72.62
71938;BME280;59810;48.800;9.086;2023-01-16T07:42:15;95330.72;;;2.02;73.05
71938;BME280;59810;48.800;9.086;2023-01-16T07:44:41;95329.63;;;1.98;73.21
71938;BME280;59810;48.800;9.086;2023-01-16T07:47:07;95324.06;;;1.99;73.88
71938;BME280;59810;48.800;9.086;2023-01-16T07:49:37;95314.72;;;1.97;72.74
71938;BME280;59810;48.800;9.086;2023-01-16T07:52:03;95305.88;;;1.91;73.21
71938;BME280;59810;48.800;9.086;2023-01-16T07:54:28;95305.31;;;1.89;72.89
71938;BME280;59810;48.800;9.086;2023-01-16T07:56:54;95298.69;;;1.92;73.15
71938;BME280;59810;48.800;9.086;2023-01-16T07:59:19;95288.59;;;1.94;73.48
71938;BME280;59810;48.800;9.086;2023-01-16T08:01:48;95280.94;;;1.97;73.48
71938;BME280;59810;48.800;9.086;2023-01-16T08:04:17;95268.44;;;1.98;73.83
71938;BME280;59810;48.800;9.086;2023-01-16T08:06:43;95262.34;;;2.02;73.70
71938;BME280;59810;48.800;9.086;2023-01-16T08:09:11;95267.66;;;2.02;73.60
71938;BME280;59810;48.800;9.086;2023-01-16T08:11:37;95250.91;;;2.02;73.67
71938;BME280;59810;48.800;9.086;2023-01-16T08:14:05;95248.00;;;2.08;74.80
71938;BME280;59810;48.800;9.086;2023-01-16T08:16:32;95250.16;;;2.11;73.75
71938;BME280;59810;48.800;9.086;2023-01-16T08:18:58;95250.59;;;1.98;73.91
71938;BME280;59810;48.800;9.086;2023-01-16T08:21:23;95237.91;;;2.10;74.18
71938;BME280;59810;48.800;9.086;2023-01-16T08:23:49;95226.53;;;2.20;73.78
71938;BME280;59810;48.800;9.086;2023-01-16T08:26:15;95220.19;;;2.26;73.72
71938;BME280;59810;48.800;9.086;2023-01-16T08:28:40;95218.88;;;2.29;73.52
71938;BME280;59810;48.800;9.086;2023-01-16T08:31:08;95219.38;;;2.26;72.79
71938;BME280;59810;48.800;9.086;2023-01-16T08:33:40;95211.44;;;2.31;72.79
71938;BME280;59810;48.800;9.086;2023-01-16T08:36:08;95212.25;;;2.31;72.96
71938;BME280;59810;48.800;9.086;2023-01-16T08:38:34;95204.53;;;2.35;72.98
71938;BME280;59810;48.800;9.086;2023-01-16T08:41:00;95205.06;;;2.32;72.11
71938;BME280;59810;48.800;9.086;2023-01-16T08:43:26;95203.22;;;2.37;72.75
71938;BME280;59810;48.800;9.086;2023-01-16T08:46:21;95202.69;;;2.40;71.90
71938;BME280;59810;48.800;9.086;2023-01-16T08:49:11;95202.47;;;2.47;70.77
71938;BME280;59810;48.800;9.086;2023-01-16T08:51:56;95194.75;;;2.50;70.00
71938;BME280;59810;48.800;9.086;2023-01-16T08:54:22;95195.03;;;2.54;70.01
71938;BME280;59810;48.800;9.086;2023-01-16T08:56:48;95197.19;;;2.57;68.88
71938;BME280;59810;48.800;9.086;2023-01-16T08:59:14;95207.34;;;2.60;68.49
71938;BME280;59810;48.800;9.086;2023-01-16T09:01:42;95198.31;;;2.71;66.82
71938;BME280;59810;48.800;9.086;2023-01-16T09:04:11;95203.13;;;2.74;67.52
71938;BME280;59810;48.800;9.086;2023-01-16T09:06:36;95201.81;;;2.77;68.38
71938;BME280;59810;48.800;9.086;2023-01-16T09:09:07;95205.81;;;2.85;69.08
71938;BME280;59810;48.800;9.086;2023-01-16T09:11:33;95207.16;;;2.87;67.45
71938;BME280;59810;48.800;9.086;2023-01-16T09:14:18;95229.63;;;3.01;65.12
71938;BME280;59810;48.800;9.086;2023-01-16T09:16:44;95235.22;;;3.05;64.94
71938;BME280;59810;48.800;9.086;2023-01-16T09:19:10;95239.78;;;3.15;64.27
71938;BME280;59810;48.800;9.086;2023-01-16T09:21:36;95238.47;;;3.22;70.06
71938;BME280;59810;48.800;9.086;2023-01-16T09:24:02;95232.97;;;3.74;84.69
71938;BME280;59810;48.800;9.086;2023-01-16T09:26:28;95227.38;;;3.71;65.95
71938;BME280;59810;48.800;9.086;2023-01-16T09:28:57;95214.03;;;3.66;64.63
71938;BME280;59810;48.800;9.086;2023-01-16T09:31:23;95205.22;;;3.60;64.99
71938;BME280;59810;48.800;9.086;2023-01-16T09:33:51;95199.91;;;3.65;63.39
71938;BME280;59810;48.800;9.086;2023-01-16T09:36:18;95195.34;;;3.76;62.27
71938;BME280;59810;48.800;9.086;2023-01-16T09:38:44;95185.22;;;3.93;61.61
71938;BME280;59810;48.800;9.086;2023-01-16T09:41:14;95171.84;;;3.88;63.06
71938;BME280;59810;48.800;9.086;2023-01-16T09:44:04;95167.84;;;4.01;61.23
71938;BME280;59810;48.800;9.086;2023-01-16T09:46:38;95163.28;;;4.12;61.00
71938;BME280;59810;48.800;9.086;2023-01-16T09:49:28;95173.44;;;4.15;60.65
71938;BME280;59810;48.800;9.086;2023-01-16T09:52:02;95161.66;;;4.21;60.55
71938;BME280;59810;48.800;9.086;2023-01-16T09:54:53;95154.47;;;4.26;60.65
71938;BME280;59810;48.800;9.086;2023-01-16T09:57:40;95150.97;;;4.21;61.25
71938;BME280;59810;48.800;9.086;2023-01-16T10:00:27;95145.66;;;4.26;60.08
71938;BME280;59810;48.800;9.086;2023-01-16T10:02:55;95146.72;;;4.25;60.69
71938;BME280;59810;48.800;9.086;2023-01-16T10:05:25;95144.59;;;4.27;62.33
71938;BME280;59810;48.800;9.086;2023-01-16T10:10:45;95129.09;;;4.19;61.88
71938;BME280;59810;48.800;9.086;2023-01-16T10:13:21;95124.31;;;4.11;61.39
71938;BME280;59810;48.800;9.086;2023-01-16T10:21:32;95102.44;;;4.09;62.57
71938;BME280;59810;48.800;9.086;2023-01-16T10:29:33;95098.69;;;4.10;60.67
71938;BME280;59810;48.800;9.086;2023-01-16T10:34:56;95082.72;;;3.99;59.87
71938;BME280;59810;48.800;9.086;2023-01-16T10:37:32;95066.66;;;4.04;58.57
71938;BME280;59810;48.800;9.086;2023-01-16T10:40:00;95070.38;;;4.14;58.51
71938;BME280;59810;48.800;9.086;2023-01-16T10:42:34;95072.78;;;4.15;58.72
71938;BME280;59810;48.800;9.086;2023-01-16T10:45:28;95050.59;;;4.20;57.31
71938;BME280;59810;48.800;9.086;2023-01-16T10:48:14;95049.25;;;4.22;56.67
71938;BME280;59810;48.800;9.086;2023-01-16T10:50:59;95039.38;;;4.23;58.49
71938;BME280;59810;48.800;9.086;2023-01-16T10:53:26;95038.84;;;4.26;57.07
71938;BME280;59810;48.800;9.086;2023-01-16T10:55:52;95036.94;;;4.31;57.93
71938;BME280;59810;48.800;9.086;2023-01-16T10:58:34;95031.22;;;4.48;61.27
71938;BME280;59810;48.800;9.086;2023-01-16T11:08:32;95015.78;;;4.84;56.48
71938;BME280;59810;48.800;9.086;2023-01-16T11:11:01;94995.75;;;4.82;56.92
71938;BME280;59810;48.800;9.086;2023-01-16T11:13:28;95003.44;;;4.93;57.43
71938;BME280;59810;48.800;9.086;2023-01-16T11:19:18;94984.25;;;5.15;58.40
71938;BME280;59810;48.800;9.086;2023-01-16T11:21:50;94975.09;;;5.26;58.78
71938;BME280;59810;48.800;9.086;2023-01-16T11:24:23;94981.94;;;5.38;59.20
71938;BME280;59810;48.800;9.086;2023-01-16T11:26:54;94976.00;;;5.41;59.21
71938;BME280;59810;48.800;9.086;2023-01-16T11:29:27;94965.81;;;5.43;60.02
71938;BME280;59810;48.800;9.086;2023-01-16T11:31:59;94950.28;;;5.45;59.85
71938;BME280;59810;48.800;9.086;2023-01-16T11:34:27;94931.28;;;5.46;60.09
71938;BME280;59810;48.800;9.086;2023-01-16T11:36:57;94927.19;;;5.54;60.01
71938;BME280;59810;48.800;9.086;2023-01-16T11:39:29;94919.44;;;5.52;60.41
71938;BME280;59810;48.800;9.086;2023-01-16T11:41:57;94918.88;;;5.55;61.10
71938;BME280;59810;48.800;9.086;2023-01-16T11:44:33;94900.69;;;5.52;60.86
71938;BME280;59810;48.800;9.086;2023-01-16T11:47:23;94896.91;;;5.58;61.00
71938;BME280;59810;48.800;9.086;2023-01-16T11:49:53;94884.81;;;5.61;60.85
71938;BME280;59810;48.800;9.086;2023-01-16T11:52:22;94879.47;;;5.61;61.07
71938;BME280;59810;48.800;9.086;2023-01-16T11:55:02;94867.19;;;5.60;61.16
71938;BME280;59810;48.800;9.086;2023-01-16T12:06:20;94841.59;;;5.73;61.84
71938;BME280;59810;48.800;9.086;2023-01-16T12:14:30;94841.22;;;5.79;61.79
71938;BME280;59810;48.800;9.086;2023-01-16T12:25:47;94805.78;;;5.87;62.86
71938;BME280;59810;48.800;9.086;2023-01-16T12:28:20;94786.09;;;5.78;62.69
71938;BME280;59810;48.800;9.086;2023-01-16T12:37:12;94786.00;;;5.83;63.77
71938;BME280;59810;48.800;9.086;2023-01-16T12:42:37;94764.53;;;6.07;65.29
71938;BME280;59810;48.800;9.086;2023-01-16T12:48:36;94744.91;;;6.12;63.10
71938;BME280;59810;48.800;9.086;2023-01-16T12:59:47;94720.97;;;6.02;63.17
71938;BME280;59810;48.800;9.086;2023-01-16T13:02:23;94720.47;;;6.00;63.45
71938;BME280;59810;48.800;9.086;2023-01-16T13:05:03;94711.78;;;6.08;63.15
71938;BME280;59810;48.800;9.086;2023-01-16T13:07:35;94707.41;;;6.12;63.07
71938;BME280;59810;48.800;9.086;2023-01-16T13:10:28;94712.69;;;6.17;63.29
71938;BME280;59810;48.800;9.086;2023-01-16T13:13:19;94712.03;;;6.25;63.15
71938;BME280;59810;48.800;9.086;2023-01-16T13:18:46;94681.47;;;6.26;63.29
71938;BME280;59810;48.800;9.086;2023-01-16T13:21:18;94633.66;;;6.19;63.23
71938;BME280;59810;48.800;9.086;2023-01-16T13:26:17;94660.66;;;6.50;62.30
71938;BME280;59810;48.800;9.086;2023-01-16T13:31:19;94646.44;;;6.77;62.14
71938;BME280;59810;48.800;9.086;2023-01-16T13:33:51;94648.16;;;6.87;61.54
71938;BME280;59810;48.800;9.086;2023-01-16T13:36:47;94663.00;;;7.07;60.36
71938;BME280;59810;48.800;9.086;2023-01-16T13:42:21;94630.69;;;7.26;59.38
71938;BME280;59810;48.800;9.086;2023-01-16T13:44:55;94619.66;;;7.27;58.92
71938;BME280;59810;48.800;9.086;2023-01-16T13:47:41;94621.25;;;7.14;59.74
71938;BME280;59810;48.800;9.086;2023-01-16T13:50:26;94631.00;;;7.10;59.53
71938;BME280;59810;48.800;9.086;2023-01-16T13:53:04;94641.84;;;7.05;59.62
71938;BME280;59810;48.800;9.086;2023-01-16T13:55:35;94633.44;;;6.98;59.43
71938;BME280;59810;48.800;9.086;2023-01-16T14:00:40;94635.72;;;6.77;59.34
71938;BME280;59810;48.800;9.086;2023-01-16T14:03:27;94632.66;;;6.70;60.64
71938;BME280;59810;48.800;9.086;2023-01-16T14:17:26;94630.00;;;6.57;60.64
71938;BME280;59810;48.800;9.086;2023-01-16T14:19:58;94622.63;;;6.48;61.27
71938;BME280;59810;48.800;9.086;2023-01-16T14:22:40;94629.38;;;6.32;61.38
71938;BME280;59810;48.800;9.086;2023-01-16T14:25:27;94613.91;;;6.29;61.55
71938;BME280;59810;48.800;9.086;2023-01-16T14:27:54;94618.44;;;6.15;62.54
71938;BME280;59810;48.800;9.086;2023-01-16T14:30:26;94618.03;;;6.08;63.00
71938;BME280;59810;48.800;9.086;2023-01-16T14:32:57;94609.09;;;5.99;63.59
71938;BME280;59810;48.800;9.086;2023-01-16T14:35:30;94595.03;;;5.74;64.47
71938;BME280;59810;48.800;9.086;2023-01-16T14:40:27;94589.28;;;5.67;65.47
71938;BME280;59810;48.800;9.086;2023-01-16T14:43:28;94575.56;;;5.55;65.49
71938;BME280;59810;48.800;9.086;2023-01-16T14:46:25;94561.97;;;5.51;66.18
71938;BME280;59810;48.800;9.086;2023-01-16T14:55:53;94540.28;;;5.20;67.46
71938;BME280;59810;48.800;9.086;2023-01-16T14:58:35;94535.00;;;5.15;67.56
71938;BME280;59810;48.800;9.086;2023-01-16T15:01:05;94525.19;;;5.11;67.52
71938;BME280;59810;48.800;9.086;2023-01-16T15:03:51;94517.28;;;5.19;69.69
71938;BME280;59810;48.800;9.086;2023-01-16T15:06:20;94512.97;;;5.23;68.51
71938;BME280;59810;48.800;9.086;2023-01-16T15:08:46;94509.53;;;5.18;67.20
71938;BME280;59810;48.800;9.086;2023-01-16T15:11:28;94501.91;;;5.11;67.46
71938;BME280;59810;48.800;9.086;2023-01-16T15:20:14;94509.94;;;5.11;66.36
71938;BME280;59810;48.800;9.086;2023-01-16T15:23:00;94518.66;;;5.17;66.15
71938;BME280;59810;48.800;9.086;2023-01-16T15:28:28;94529.91;;;5.32;65.44
71938;BME280;59810;48.800;9.086;2023-01-16T15:30:59;94539.22;;;5.35;65.98
71938;BME280;59810;48.800;9.086;2023-01-16T15:33:30;94534.09;;;5.39;66.36
71938;BME280;59810;48.800;9.086;2023-01-16T15:36:37;94545.28;;;5.41;67.08
71938;BME280;59810;48.800;9.086;2023-01-16T15:44:40;94547.53;;;5.01;72.41
71938;BME280;59810;48.800;9.086;2023-01-16T15:48:20;94558.09;;;4.92;73.77
71938;BME280;59810;48.800;9.086;2023-01-16T15:52:50;94538.34;;;4.69;76.09
71938;BME280;59810;48.800;9.086;2023-01-16T15:55:23;94543.19;;;4.67;76.21
71938;BME280;59810;48.800;9.086;2023-01-16T15:57:56;94527.59;;;4.56;76.95
71938;BME280;59810;48.800;9.086;2023-01-16T16:02:57;94520.06;;;4.39;78.78
71938;BME280;59810;48.800;9.086;2023-01-16T16:05:23;94527.06;;;4.35;79.52
71938;BME280;59810;48.800;9.086;2023-01-16T16:07:50;94523.16;;;4.27;80.08
71938;BME280;59810;48.800;9.086;2023-01-16T16:10:18;94533.56;;;4.29;79.99
71938;BME280;59810;48.800;9.086;2023-01-16T16:13:05;94534.72;;;4.23;80.47
71938;BME280;59810;48.800;9.086;2023-01-16T16:15:32;94532.09;;;4.18;81.17
71938;BME280;59810;48.800;9.086;2023-01-16T16:18:19;94538.22;;;4.18;81.62
71938;BME280;59810;48.800;9.086;2023-01-16T16:20:47;94514.59;;;4.06;82.20
71938;BME280;59810;48.800;9.086;2023-01-16T16:23:22;94517.00;;;4.08;82.20
71938;BME280;59810;48.800;9.086;2023-01-16T16:25:55;94515.75;;;4.00;83.05
71938;BME280;59810;48.800;9.086;2023-01-16T16:28:25;94526.50;;;3.95;84.17
71938;BME280;59810;48.800;9.086;2023-01-16T16:31:00;94526.81;;;3.89;83.95
71938;BME280;59810;48.800;9.086;2023-01-16T16:33:27;94527.34;;;3.91;84.56